Wetterdaten: Woche 10.01.11 - 16.01.11 (KW2)
Datum Zeit Temp. A. Feuchte A. Luftdruck Regen Wind Richtung Taupunkt Windchill Windben
10.01.2011 00:00 1,5 C 84 % 1018,7 hPa 0,0 l/m 0,8 km/h SW -0,9 C 1,5 C 4,8 km/h
10.01.2011 01:00 1,3 C 84 % 1019,0 hPa 0,0 l/m 2,4 km/h W-NW -1,0 C 1,3 C 10,4 km/h
10.01.2011 02:00 1,0 C 84 % 1019,4 hPa 0,0 l/m 3,2 km/h W-SW -1,4 C 1,0 C 8,9 km/h
10.01.2011 03:00 1,1 C 84 % 1019,7 hPa 0,0 l/m 1,6 km/h W -1,3 C 1,1 C 8,1 km/h
10.01.2011 04:00 1,2 C 84 % 1019,8 hPa 0,0 l/m 0,0 km/h N-NW -1,2 C 1,2 C 4,0 km/h
10.01.2011 05:00 0,9 C 85 % 1020,3 hPa 0,0 l/m 4,0 km/h NW -1,5 C 0,9 C 10,4 km/h
10.01.2011 06:00 0,5 C 85 % 1020,6 hPa 0,0 l/m 4,0 km/h N-NW -1,7 C 0,5 C 10,4 km/h
10.01.2011 07:00 0,0 C 86 % 1021,3 hPa 0,0 l/m 0,0 km/h N -2,1 C 0,0 C 3,2 km/h
10.01.2011 08:00 0,2 C 85 % 1022,2 hPa 0,0 l/m 0,9 km/h N-NW -2,0 C 0,2 C 3,7 km/h
10.01.2011 09:00 1,1 C 85 % 1022,7 hPa 0,0 l/m 0,4 km/h N -1,1 C 1,1 C 3,2 km/h
10.01.2011 10:00 2,4 C 85 % 1022,8 hPa 0,0 l/m 0,1 km/h N 0,1 C 2,4 C 1,2 km/h
10.01.2011 11:00 2,6 C 85 % 1022,9 hPa 0,0 l/m 0,0 km/h N 0,4 C 2,6 C 1,2 km/h
10.01.2011 12:00 2,9 C 86 % 1022,8 hPa 0,0 l/m 0,0 km/h N 0,8 C 2,9 C 0,4 km/h
10.01.2011 13:00 3,4 C 86 % 1022,7 hPa 0,0 l/m 3,1 km/h NW 1,3 C 3,4 C 7,7 km/h
10.01.2011 14:00 3,7 C 86 % 1022,6 hPa 0,0 l/m 2,7 km/h N-NW 1,6 C 3,7 C 7,2 km/h
10.01.2011 15:00 3,7 C 85 % 1022,8 hPa 0,0 l/m 0,5 km/h N 1,4 C 3,7 C 2,0 km/h
10.01.2011 16:00 3,4 C 86 % 1022,8 hPa 0,0 l/m 0,0 km/h N 1,2 C 3,4 C 0,0 km/h
10.01.2011 17:00 3,2 C 86 % 1022,9 hPa 0,0 l/m 0,0 km/h N 1,0 C 3,2 C 0,0 km/h
10.01.2011 18:00 2,9 C 86 % 1022,8 hPa 0,0 l/m 0,0 km/h N 0,7 C 2,9 C 0,0 km/h
10.01.2011 19:00 2,6 C 86 % 1022,6 hPa 0,3 l/m 0,0 km/h N 0,5 C 2,6 C 0,0 km/h
10.01.2011 20:00 2,4 C 86 % 1022,2 hPa 0,8 l/m 0,0 km/h N 0,3 C 2,4 C 0,0 km/h
10.01.2011 21:00 2,3 C 86 % 1021,8 hPa 1,0 l/m 0,0 km/h N 0,2 C 2,3 C 0,0 km/h
10.01.2011 22:00 2,3 C 86 % 1021,4 hPa 0,3 l/m 0,0 km/h N 0,1 C 2,3 C 0,0 km/h
10.01.2011 23:00 2,3 C 86 % 1020,7 hPa 0,0 l/m 0,0 km/h N 0,1 C 2,3 C 0,0 km/h
11.01.2011 00:00 2,4 C 85 % 1019,8 hPa 0,0 l/m 0,1 km/h N 0,2 C 2,4 C 2,0 km/h
11.01.2011 01:00 2,5 C 85 % 1019,3 hPa 0,0 l/m 0,1 km/h N 0,3 C 2,5 C 1,6 km/h
11.01.2011 02:00 2,2 C 85 % 1018,8 hPa 0,0 l/m 0,1 km/h N -0,1 C 2,2 C 2,4 km/h
11.01.2011 03:00 2,3 C 85 % 1018,2 hPa 0,0 l/m 0,3 km/h N 0,1 C 2,3 C 4,0 km/h
11.01.2011 04:00 2,5 C 85 % 1017,5 hPa 0,0 l/m 0,6 km/h O 0,2 C 2,5 C 6,0 km/h
11.01.2011 05:00 2,5 C 85 % 1017,1 hPa 0,0 l/m 0,6 km/h N 0,2 C 2,5 C 4,8 km/h
11.01.2011 06:00 2,3 C 85 % 1016,5 hPa 0,0 l/m 0,9 km/h O 0,0 C 2,3 C 6,0 km/h
11.01.2011 07:00 2,3 C 84 % 1016,3 hPa 0,0 l/m 0,4 km/h N -0,1 C 2,3 C 4,0 km/h
11.01.2011 08:00 2,5 C 84 % 1016,2 hPa 0,0 l/m 0,0 km/h N 0,1 C 2,5 C 1,6 km/h
11.01.2011 09:00 2,8 C 84 % 1015,8 hPa 0,0 l/m 0,7 km/h N 0,3 C 2,8 C 6,0 km/h
11.01.2011 10:00 3,2 C 84 % 1015,4 hPa 0,0 l/m 0,4 km/h N 0,7 C 3,2 C 4,4 km/h
11.01.2011 11:00 3,7 C 84 % 1014,6 hPa 0,0 l/m 0,1 km/h N 1,2 C 3,7 C 1,6 km/h
11.01.2011 12:00 4,1 C 84 % 1013,5 hPa 0,0 l/m 0,0 km/h N 1,6 C 4,1 C 2,0 km/h
11.01.2011 13:00 4,0 C 84 % 1012,7 hPa 0,0 l/m 1,3 km/h O-SO 1,6 C 4,0 C 7,3 km/h
11.01.2011 14:00 3,7 C 84 % 1012,2 hPa 0,0 l/m 1,4 km/h O-SO 1,3 C 3,7 C 6,8 km/h
11.01.2011 15:00 3,4 C 84 % 1011,9 hPa 0,0 l/m 2,0 km/h O 1,0 C 3,4 C 9,3 km/h
11.01.2011 16:00 3,1 C 84 % 1011,9 hPa 0,0 l/m 2,4 km/h S-SO 0,6 C 3,1 C 9,3 km/h
11.01.2011 17:00 2,7 C 84 % 1011,9 hPa 0,0 l/m 1,9 km/h O-SO 0,3 C 2,7 C 8,4 km/h
11.01.2011 18:00 2,5 C 84 % 1011,9 hPa 0,0 l/m 1,4 km/h O-SO 0,1 C 2,5 C 6,8 km/h
11.01.2011 19:00 2,4 C 84 % 1012,0 hPa 0,0 l/m 0,1 km/h N -0,0 C 2,4 C 3,2 km/h
11.01.2011 20:00 2,3 C 84 % 1012,2 hPa 0,0 l/m 0,0 km/h N -0,2 C 2,3 C 0,4 km/h
11.01.2011 21:00 2,0 C 84 % 1012,7 hPa 0,0 l/m 0,0 km/h N -0,4 C 2,0 C 0,4 km/h
11.01.2011 22:00 2,2 C 84 % 1013,5 hPa 0,0 l/m 1,4 km/h NW -0,2 C 2,2 C 5,2 km/h
11.01.2011 23:00 2,4 C 84 % 1014,2 hPa 0,0 l/m 3,7 km/h NW -0,0 C 2,4 C 9,6 km/h
12.01.2011 00:00 2,0 C 84 % 1014,5 hPa 0,0 l/m 2,6 km/h NW -0,4 C 2,0 C 9,2 km/h
12.01.2011 01:00 2,5 C 84 % 1014,5 hPa 0,0 l/m 5,3 km/h W-NW 0,1 C 2,1 C 20,1 km/h
12.01.2011 02:00 3,4 C 86 % 1014,9 hPa 0,0 l/m 2,6 km/h W 1,2 C 3,4 C 10,4 km/h
12.01.2011 03:00 4,6 C 85 % 1015,0 hPa 0,0 l/m 5,8 km/h NW 2,3 C 4,4 C 19,7 km/h
12.01.2011 04:00 4,5 C 83 % 1015,7 hPa 0,0 l/m 4,8 km/h N-NW 1,8 C 4,4 C 16,1 km/h
12.01.2011 05:00 4,7 C 84 % 1015,9 hPa 0,0 l/m 4,5 km/h W 2,2 C 4,7 C 16,9 km/h
12.01.2011 06:00 5,6 C 81 % 1016,3 hPa 0,0 l/m 3,8 km/h W-SW 2,5 C 5,6 C 16,1 km/h
12.01.2011 07:00 6,0 C 79 % 1016,7 hPa 0,0 l/m 2,8 km/h N-NO 2,6 C 6,0 C 12,5 km/h
12.01.2011 08:00 5,9 C 78 % 1017,0 hPa 0,0 l/m 2,5 km/h N-NO 2,4 C 5,9 C 9,3 km/h
12.01.2011 09:00 6,7 C 77 % 1017,2 hPa 0,0 l/m 5,1 km/h W-NW 2,9 C 6,3 C 22,9 km/h
12.01.2011 10:00 8,1 C 72 % 1017,7 hPa 0,0 l/m 8,3 km/h SW 3,4 C 6,7 C 25,4 km/h
12.01.2011 11:00 8,1 C 73 % 1018,0 hPa 0,0 l/m 14,1 km/h W 3,4 C 3,3 C 34,2 km/h
12.01.2011 12:00 8,2 C 72 % 1018,4 hPa 0,0 l/m 13,2 km/h NW 3,4 C 3,9 C 30,6 km/h
12.01.2011 13:00 8,2 C 71 % 1018,6 hPa 0,0 l/m 8,3 km/h W 3,3 C 6,8 C 24,1 km/h
12.01.2011 14:00 7,6 C 72 % 1018,8 hPa 0,0 l/m 6,5 km/h W 2,8 C 7,3 C 22,9 km/h
12.01.2011 15:00 6,9 C 72 % 1019,4 hPa 0,0 l/m 5,9 km/h W-SW 2,2 C 6,6 C 18,5 km/h
12.01.2011 16:00 6,5 C 72 % 1019,8 hPa 0,0 l/m 7,4 km/h W 1,7 C 5,7 C 23,3 km/h
12.01.2011 17:00 6,0 C 72 % 1020,1 hPa 0,0 l/m 7,5 km/h W 1,2 C 5,1 C 23,7 km/h
12.01.2011 18:00 5,8 C 72 % 1020,2 hPa 0,0 l/m 7,0 km/h W-SW 1,2 C 5,1 C 21,3 km/h
12.01.2011 19:00 5,5 C 72 % 1020,2 hPa 0,0 l/m 2,5 km/h W-SW 0,9 C 5,5 C 11,3 km/h
12.01.2011 20:00 4,6 C 73 % 1020,0 hPa 0,0 l/m 0,3 km/h N 0,1 C 4,6 C 2,8 km/h
12.01.2011 21:00 2,8 C 77 % 1019,7 hPa 0,0 l/m 0,0 km/h N -0,8 C 2,8 C 1,2 km/h
12.01.2011 22:00 2,1 C 82 % 1019,4 hPa 0,0 l/m 0,1 km/h N -0,7 C 2,1 C 2,0 km/h
12.01.2011 23:00 2,9 C 84 % 1018,8 hPa 0,0 l/m 0,1 km/h N 0,5 C 2,9 C 1,6 km/h
13.01.2011 00:00 3,3 C 84 % 1017,8 hPa 0,0 l/m 0,2 km/h N 0,9 C 3,3 C 2,8 km/h
13.01.2011 01:00 3,1 C 85 % 1016,8 hPa 0,3 l/m 0,0 km/h N 0,7 C 3,1 C 1,2 km/h
13.01.2011 02:00 3,1 C 85 % 1015,8 hPa 0,3 l/m 0,0 km/h N 0,8 C 3,1 C 1,2 km/h
13.01.2011 03:00 2,9 C 85 % 1014,9 hPa 0,3 l/m 0,0 km/h N 0,6 C 2,9 C 0,4 km/h
13.01.2011 04:00 2,9 C 85 % 1014,3 hPa 1,0 l/m 0,1 km/h N 0,6 C 2,9 C 1,6 km/h
13.01.2011 05:00 3,0 C 85 % 1013,6 hPa 2,6 l/m 0,0 km/h N 0,8 C 3,0 C 1,1 km/h
13.01.2011 06:00 3,4 C 85 % 1013,0 hPa 1,3 l/m 0,3 km/h N 1,1 C 3,4 C 3,2 km/h
13.01.2011 07:00 3,3 C 85 % 1013,3 hPa 2,6 l/m 0,1 km/h N 1,0 C 3,3 C 2,8 km/h
13.01.2011 08:00 4,4 C 84 % 1013,1 hPa 1,0 l/m 3,3 km/h W 1,9 C 4,2 C 15,7 km/h
13.01.2011 09:00 9,2 C 84 % 1012,8 hPa 0,0 l/m 10,1 km/h W 6,6 C 6,6 C 31,0 km/h
13.01.2011 10:00 10,4 C 79 % 1013,0 hPa 0,0 l/m 5,8 km/h W 6,8 C 10,0 C 18,9 km/h
13.01.2011 11:00 11,0 C 76 % 1012,7 hPa 0,0 l/m 5,8 km/h W-NW 6,9 C 10,8 C 18,5 km/h
13.01.2011 12:00 10,9 C 76 % 1012,6 hPa 0,0 l/m 5,8 km/h NW 6,9 C 10,8 C 18,5 km/h
13.01.2011 13:00 10,1 C 82 % 1012,4 hPa 1,3 l/m 7,7 km/h NW 7,2 C 9,2 C 21,7 km/h
13.01.2011 14:00 10,0 C 84 % 1012,6 hPa 1,6 l/m 7,4 km/h N-NW 7,3 C 9,3 C 20,1 km/h
13.01.2011 15:00 10,1 C 84 % 1012,8 hPa 1,3 l/m 8,4 km/h NW 7,5 C 8,6 C 24,1 km/h
13.01.2011 16:00 10,2 C 83 % 1012,9 hPa 1,3 l/m 6,3 km/h W-NW 7,5 C 10,1 C 17,3 km/h
13.01.2011 17:00 10,3 C 84 % 1013,2 hPa 1,8 l/m 6,6 km/h W-SW 7,7 C 10,0 C 20,5 km/h
13.01.2011 18:00 10,2 C 84 % 1013,4 hPa 1,6 l/m 3,6 km/h W-SW 7,6 C 10,2 C 14,5 km/h
13.01.2011 19:00 10,2 C 84 % 1013,4 hPa 1,0 l/m 3,5 km/h W-SW 7,6 C 10,2 C 14,1 km/h
13.01.2011 20:00 10,6 C 84 % 1013,0 hPa 1,3 l/m 8,6 km/h W 8,0 C 9,1 C 22,5 km/h
13.01.2011 21:00 10,8 C 84 % 1012,6 hPa 0,8 l/m 11,5 km/h W 8,2 C 7,7 C 32,2 km/h
13.01.2011 22:00 11,1 C 83 % 1012,4 hPa 0,5 l/m 12,7 km/h W 8,3 C 7,4 C 29,8 km/h
13.01.2011 23:00 11,6 C 80 % 1012,5 hPa 0,0 l/m 11,7 km/h W-SW 8,3 C 8,5 C 32,2 km/h
14.01.2011 00:00 11,9 C 79 % 1012,8 hPa 0,0 l/m 9,7 km/h W-NW 8,4 C 9,8 C 30,2 km/h
14.01.2011 01:00 11,9 C 79 % 1013,0 hPa 0,0 l/m 9,1 km/h W 8,4 C 10,2 C 28,1 km/h
14.01.2011 02:00 12,0 C 79 % 1013,3 hPa 0,0 l/m 9,3 km/h NW 8,5 C 10,2 C 29,4 km/h
14.01.2011 03:00 12,0 C 79 % 1013,4 hPa 0,0 l/m 6,0 km/h W-NW 8,4 C 11,7 C 21,7 km/h
14.01.2011 04:00 12,1 C 79 % 1014,0 hPa 0,0 l/m 6,5 km/h W-NW 8,5 C 11,8 C 22,1 km/h
14.01.2011 05:00 11,9 C 80 % 1014,0 hPa 0,0 l/m 8,0 km/h W-SW 8,5 C 11,0 C 21,7 km/h
14.01.2011 06:00 12,3 C 79 % 1014,5 hPa 0,0 l/m 7,9 km/h W-SW 8,8 C 11,3 C 22,9 km/h
14.01.2011 07:00 12,2 C 80 % 1015,0 hPa 0,0 l/m 7,5 km/h W 8,7 C 11,5 C 20,1 km/h
14.01.2011 08:00 12,0 C 81 % 1015,3 hPa 0,3 l/m 8,1 km/h W 8,9 C 11,0 C 21,7 km/h
14.01.2011 09:00 12,2 C 80 % 1015,5 hPa 0,0 l/m 7,4 km/h W-NW 8,9 C 11,5 C 23,3 km/h
14.01.2011 10:00 12,5 C 80 % 1015,5 hPa 0,0 l/m 8,8 km/h W 9,1 C 11,1 C 25,8 km/h
14.01.2011 11:00 12,5 C 80 % 1015,7 hPa 0,0 l/m 9,4 km/h W 9,1 C 10,8 C 26,5 km/h
14.01.2011 12:00 12,9 C 78 % 1015,7 hPa 0,0 l/m 11,8 km/h W 9,1 C 9,9 C 32,7 km/h
14.01.2011 13:00 13,2 C 76 % 1015,5 hPa 0,0 l/m 11,1 km/h W 9,1 C 10,6 C 30,6 km/h
14.01.2011 14:00 13,4 C 75 % 1015,8 hPa 0,0 l/m 8,8 km/h NW 8,9 C 12,0 C 24,5 km/h
14.01.2011 15:00 12,7 C 76 % 1016,0 hPa 0,0 l/m 8,1 km/h W-NW 8,5 C 11,6 C 24,9 km/h
14.01.2011 16:00 12,4 C 75 % 1016,5 hPa 0,0 l/m 8,5 km/h W 8,1 C 11,1 C 24,9 km/h
14.01.2011 17:00 12,4 C 73 % 1016,7 hPa 0,0 l/m 6,4 km/h W-NW 7,7 C 12,2 C 23,7 km/h
14.01.2011 18:00 12,3 C 74 % 1017,0 hPa 0,0 l/m 4,6 km/h W-SW 7,8 C 12,3 C 17,7 km/h
14.01.2011 19:00 12,1 C 72 % 1017,0 hPa 0,0 l/m 4,9 km/h NW 7,2 C 12,1 C 20,1 km/h
14.01.2011 20:00 11,7 C 71 % 1016,9 hPa 0,0 l/m 1,3 km/h N 6,6 C 11,7 C 6,0 km/h
14.01.2011 21:00 9,9 C 74 % 1016,8 hPa 0,0 l/m 0,2 km/h W-SW 5,5 C 9,9 C 2,4 km/h
14.01.2011 22:00 10,4 C 75 % 1016,2 hPa 0,0 l/m 2,6 km/h W 6,2 C 10,4 C 11,6 km/h
14.01.2011 23:00 11,6 C 69 % 1016,0 hPa 0,0 l/m 5,6 km/h SW 6,1 C 11,2 C 17,7 km/h
15.01.2011 00:00 11,6 C 69 % 1015,4 hPa 0,0 l/m 4,3 km/h SW 6,0 C 11,5 C 17,3 km/h
15.01.2011 01:00 11,3 C 69 % 1015,5 hPa 0,0 l/m 3,5 km/h S-SW 5,9 C 11,3 C 14,1 km/h
15.01.2011 02:00 10,3 C 72 % 1015,9 hPa 0,0 l/m 2,2 km/h SW 5,4 C 10,3 C 12,9 km/h
15.01.2011 03:00 10,9 C 71 % 1016,5 hPa 0,0 l/m 6,7 km/h NW 5,7 C 10,6 C 20,9 km/h
15.01.2011 04:00 10,6 C 71 % 1016,9 hPa 0,0 l/m 7,6 km/h NW 5,5 C 9,4 C 25,3 km/h
15.01.2011 05:00 10,6 C 70 % 1016,6 hPa 0,0 l/m 11,2 km/h NW 5,4 C 7,6 C 28,4 km/h
15.01.2011 06:00 10,8 C 67 % 1016,3 hPa 0,0 l/m 12,9 km/h W 4,8 C 7,1 C 36,2 km/h
15.01.2011 07:00 10,9 C 67 % 1017,1 hPa 0,0 l/m 12,9 km/h W 5,0 C 7,1 C 39,4 km/h
15.01.2011 08:00 10,6 C 70 % 1018,1 hPa 0,0 l/m 13,7 km/h W-SW 5,3 C 6,4 C 33,8 km/h
15.01.2011 09:00 10,6 C 71 % 1019,6 hPa 0,0 l/m 12,1 km/h W 5,6 C 7,1 C 31,4 km/h
15.01.2011 10:00 10,8 C 70 % 1020,7 hPa 0,0 l/m 13,8 km/h W-NW 5,6 C 6,7 C 33,4 km/h
15.01.2011 11:00 11,2 C 68 % 1021,3 hPa 0,0 l/m 13,0 km/h W 5,4 C 7,4 C 33,8 km/h
15.01.2011 12:00 11,2 C 65 % 1022,0 hPa 0,0 l/m 14,6 km/h NW 4,8 C 6,8 C 33,8 km/h
15.01.2011 13:00 11,0 C 63 % 1022,5 hPa 0,0 l/m 12,4 km/h W-NW 4,2 C 7,5 C 33,4 km/h
15.01.2011 14:00 10,4 C 63 % 1023,5 hPa 0,0 l/m 13,9 km/h W-NW 3,6 C 6,1 C 32,6 km/h
15.01.2011 15:00 10,6 C 58 % 1023,5 hPa 0,0 l/m 13,0 km/h NW 2,7 C 6,7 C 35,8 km/h
15.01.2011 16:00 10,0 C 63 % 1024,4 hPa 0,0 l/m 10,6 km/h W-NW 3,1 C 7,3 C 26,5 km/h
15.01.2011 17:00 9,4 C 65 % 1025,5 hPa 0,0 l/m 7,9 km/h W-NW 3,2 C 8,2 C 22,9 km/h
15.01.2011 18:00 9,0 C 70 % 1025,7 hPa 0,0 l/m 8,2 km/h NW 3,8 C 7,7 C 24,9 km/h
15.01.2011 19:00 9,0 C 69 % 1026,1 hPa 0,0 l/m 7,6 km/h NW 3,6 C 8,1 C 19,7 km/h
15.01.2011 20:00 9,2 C 67 % 1026,5 hPa 0,0 l/m 8,6 km/h W 3,5 C 7,6 C 24,9 km/h
15.01.2011 21:00 9,2 C 66 % 1026,8 hPa 0,0 l/m 8,5 km/h W 3,2 C 7,7 C 26,2 km/h
15.01.2011 22:00 9,3 C 66 % 1027,0 hPa 0,0 l/m 6,5 km/h W-NW 3,3 C 8,9 C 20,5 km/h
15.01.2011 23:00 9,1 C 67 % 1027,3 hPa 0,0 l/m 4,5 km/h W 3,2 C 9,1 C 14,5 km/h
16.01.2011 00:00 8,9 C 68 % 1027,6 hPa 0,0 l/m 3,1 km/h W-SW 3,3 C 8,9 C 13,3 km/h
16.01.2011 01:00 8,6 C 71 % 1027,6 hPa 0,0 l/m 1,8 km/h SW 3,7 C 8,6 C 8,9 km/h
16.01.2011 02:00 8,4 C 72 % 1027,8 hPa 0,0 l/m 1,0 km/h N-NW 3,7 C 8,4 C 7,2 km/h
16.01.2011 03:00 6,9 C 74 % 1027,9 hPa 0,0 l/m 0,1 km/h N 2,5 C 6,9 C 2,0 km/h
16.01.2011 04:00 5,2 C 81 % 1027,8 hPa 0,0 l/m 0,1 km/h N 2,2 C 5,2 C 1,6 km/h
16.01.2011 05:00 5,4 C 82 % 1027,7 hPa 0,0 l/m 0,1 km/h N 2,6 C 5,4 C 1,2 km/h
16.01.2011 06:00 5,2 C 83 % 1027,9 hPa 0,0 l/m 0,0 km/h N 2,6 C 5,2 C 0,8 km/h
16.01.2011 07:00 5,1 C 83 % 1028,1 hPa 0,0 l/m 0,1 km/h N 2,4 C 5,1 C 0,8 km/h
16.01.2011 08:00 4,0 C 83 % 1028,4 hPa 0,0 l/m 0,0 km/h N 1,4 C 4,0 C 0,0 km/h
16.01.2011 09:00 4,3 C 84 % 1028,8 hPa 0,0 l/m 0,0 km/h N 1,8 C 4,3 C 1,2 km/h
16.01.2011 10:00 6,2 C 84 % 1028,7 hPa 0,0 l/m 0,0 km/h N 3,7 C 6,2 C 0,4 km/h
16.01.2011 11:00 8,1 C 79 % 1028,5 hPa 0,0 l/m 0,3 km/h N 4,6 C 8,1 C 2,4 km/h
16.01.2011 12:00 10,3 C 71 % 1028,1 hPa 0,0 l/m 1,4 km/h O 5,2 C 10,3 C 4,4 km/h
16.01.2011 13:00 11,9 C 58 % 1027,6 hPa 0,0 l/m 1,0 km/h O 3,8 C 11,9 C 4,0 km/h
16.01.2011 14:00 12,6 C 55 % 1027,4 hPa 0,0 l/m 0,8 km/h O 3,8 C 12,6 C 3,6 km/h
16.01.2011 15:00 11,7 C 60 % 1027,5 hPa 0,0 l/m 0,3 km/h N 4,2 C 11,7 C 2,8 km/h
16.01.2011 16:00 10,8 C 63 % 1027,4 hPa 0,0 l/m 0,2 km/h N 4,0 C 10,8 C 2,8 km/h
16.01.2011 17:00 8,6 C 67 % 1027,5 hPa 0,0 l/m 0,0 km/h N 2,8 C 8,6 C 1,6 km/h
16.01.2011 18:00 5,4 C 73 % 1027,5 hPa 0,0 l/m 0,0 km/h N 0,9 C 5,4 C 0,0 km/h
16.01.2011 19:00 3,4 C 79 % 1027,2 hPa 0,0 l/m 0,0 km/h N 0,1 C 3,4 C 0,8 km/h
16.01.2011 20:00 2,6 C 82 % 1027,3 hPa 0,0 l/m 0,1 km/h N -0,1 C 2,6 C 2,0 km/h
16.01.2011 21:00 1,9 C 83 % 1027,4 hPa 0,0 l/m 0,0 km/h N -0,7 C 1,9 C 0,4 km/h
16.01.2011 22:00 1,8 C 84 % 1027,3 hPa 0,0 l/m 0,0 km/h N -0,6 C 1,8 C 0,8 km/h
16.01.2011 23:00 1,0 C 84 % 1027,6 hPa 0,0 l/m 0,0 km/h N -1,3 C 1,0 C 0,4 km/h
Min-Datum _ 10.01.11 16.01.11 11.01.11 - 10.01.11 - 10.01.11 10.01.11 10.01.11
_ Min-Zeit 07:30 14:00 15:45 - 00:00 - 07:30 07:30 10:45
Minimum _ -0,1 C 52 % 1011,8 hPa - 0,0 km/h - -2,2 C -0,1 C 0,0 km/h
Max-Datum _ 14.01.11 10.01.11 16.01.11 13.01.11 12.01.11 - 14.01.11 14.01.11 15.01.11
_ Max-Zeit 14:45 07:30 09:15 05:30 11:45 - 13:30 14:45 13:00
Maximum _ 13,5 C 86 % 1028,8 hPa 2,6 l/m 16,3 km/h
W
- 9,3 C 13,4 C 46,7 km/h
W
Durchschnitt _ 6,7 C 78 % 1018,9 hPa #24,4 l/m 4,1 km/h W 3,1 C 6,0 C 13,1 km/h